sensor_id;sensor_type;location;lat;lon;timestamp;P1;durP1;ratioP1;P2;durP2;ratioP2
43990;SDS011;29654;50.784;20.604;2023-08-30T00:03:05;2.95;;;2.03;;
43990;SDS011;29654;50.784;20.604;2023-08-30T00:08:09;4.90;;;3.97;;
43990;SDS011;29654;50.784;20.604;2023-08-30T00:13:13;5.28;;;4.88;;
43990;SDS011;29654;50.784;20.604;2023-08-30T00:18:17;5.60;;;5.07;;
43990;SDS011;29654;50.784;20.604;2023-08-30T00:23:21;5.45;;;4.95;;
43990;SDS011;29654;50.784;20.604;2023-08-30T00:28:23;4.28;;;3.88;;
43990;SDS011;29654;50.784;20.604;2023-08-30T00:33:27;4.68;;;3.35;;
43990;SDS011;29654;50.784;20.604;2023-08-30T00:38:32;4.20;;;3.80;;
43990;SDS011;29654;50.784;20.604;2023-08-30T00:43:35;6.82;;;2.70;;
43990;SDS011;29654;50.784;20.604;2023-08-30T00:48:38;2.95;;;2.58;;
43990;SDS011;29654;50.784;20.604;2023-08-30T00:53:44;4.10;;;2.30;;
43990;SDS011;29654;50.784;20.604;2023-08-30T00:58:47;2.17;;;1.95;;
43990;SDS011;29654;50.784;20.604;2023-08-30T01:03:50;3.72;;;2.50;;
43990;SDS011;29654;50.784;20.604;2023-08-30T01:08:55;2.15;;;1.95;;
43990;SDS011;29654;50.784;20.604;2023-08-30T01:13:58;3.08;;;2.00;;
43990;SDS011;29654;50.784;20.604;2023-08-30T01:19:11;1.83;;;1.73;;
43990;SDS011;29654;50.784;20.604;2023-08-30T01:24:31;3.22;;;1.77;;
43990;SDS011;29654;50.784;20.604;2023-08-30T01:29:44;2.15;;;1.52;;
43990;SDS011;29654;50.784;20.604;2023-08-30T01:34:47;3.92;;;1.85;;
43990;SDS011;29654;50.784;20.604;2023-08-30T01:39:51;4.15;;;1.70;;
43990;SDS011;29654;50.784;20.604;2023-08-30T01:44:58;2.40;;;1.65;;
43990;SDS011;29654;50.784;20.604;2023-08-30T01:50:03;2.20;;;1.92;;
43990;SDS011;29654;50.784;20.604;2023-08-30T01:55:07;5.28;;;2.17;;
43990;SDS011;29654;50.784;20.604;2023-08-30T02:00:12;2.67;;;2.22;;
43990;SDS011;29654;50.784;20.604;2023-08-30T02:05:20;2.42;;;2.22;;
43990;SDS011;29654;50.784;20.604;2023-08-30T02:10:24;2.95;;;2.65;;
43990;SDS011;29654;50.784;20.604;2023-08-30T02:15:31;3.15;;;2.40;;
43990;SDS011;29654;50.784;20.604;2023-08-30T02:20:37;2.83;;;2.63;;
43990;SDS011;29654;50.784;20.604;2023-08-30T02:25:41;3.97;;;2.70;;
43990;SDS011;29654;50.784;20.604;2023-08-30T02:30:45;3.88;;;3.40;;
43990;SDS011;29654;50.784;20.604;2023-08-30T02:35:50;4.13;;;3.38;;
43990;SDS011;29654;50.784;20.604;2023-08-30T02:40:54;5.43;;;3.58;;
43990;SDS011;29654;50.784;20.604;2023-08-30T02:45:58;4.38;;;2.95;;
43990;SDS011;29654;50.784;20.604;2023-08-30T02:51:01;4.05;;;3.15;;
43990;SDS011;29654;50.784;20.604;2023-08-30T02:56:04;4.90;;;3.15;;
43990;SDS011;29654;50.784;20.604;2023-08-30T03:01:08;6.05;;;3.95;;
43990;SDS011;29654;50.784;20.604;2023-08-30T03:06:11;5.22;;;3.63;;
43990;SDS011;29654;50.784;20.604;2023-08-30T03:11:14;5.43;;;4.38;;
43990;SDS011;29654;50.784;20.604;2023-08-30T03:16:27;5.43;;;4.43;;
43990;SDS011;29654;50.784;20.604;2023-08-30T03:21:30;7.10;;;4.65;;
43990;SDS011;29654;50.784;20.604;2023-08-30T03:26:33;4.90;;;4.07;;
43990;SDS011;29654;50.784;20.604;2023-08-30T03:31:38;6.47;;;4.38;;
43990;SDS011;29654;50.784;20.604;2023-08-30T03:36:40;10.02;;;5.13;;
43990;SDS011;29654;50.784;20.604;2023-08-30T03:41:44;5.82;;;4.80;;
43990;SDS011;29654;50.784;20.604;2023-08-30T03:46:48;5.03;;;4.50;;
43990;SDS011;29654;50.784;20.604;2023-08-30T03:51:50;7.50;;;5.20;;
43990;SDS011;29654;50.784;20.604;2023-08-30T03:56:53;5.55;;;4.25;;
43990;SDS011;29654;50.784;20.604;2023-08-30T04:01:57;4.20;;;3.80;;
43990;SDS011;29654;50.784;20.604;2023-08-30T04:07:01;4.32;;;3.85;;
43990;SDS011;29654;50.784;20.604;2023-08-30T04:12:04;4.38;;;3.88;;
43990;SDS011;29654;50.784;20.604;2023-08-30T04:17:09;4.50;;;3.95;;
43990;SDS011;29654;50.784;20.604;2023-08-30T04:22:11;3.60;;;3.30;;
43990;SDS011;29654;50.784;20.604;2023-08-30T04:27:14;4.55;;;4.15;;
43990;SDS011;29654;50.784;20.604;2023-08-30T04:32:18;3.67;;;3.38;;
43990;SDS011;29654;50.784;20.604;2023-08-30T04:37:20;4.22;;;3.22;;
43990;SDS011;29654;50.784;20.604;2023-08-30T04:42:23;4.32;;;3.47;;
43990;SDS011;29654;50.784;20.604;2023-08-30T04:47:27;3.53;;;3.15;;
43990;SDS011;29654;50.784;20.604;2023-08-30T04:52:30;4.00;;;3.60;;
43990;SDS011;29654;50.784;20.604;2023-08-30T04:57:34;4.28;;;3.65;;
43990;SDS011;29654;50.784;20.604;2023-08-30T05:02:40;3.72;;;3.35;;
43990;SDS011;29654;50.784;20.604;2023-08-30T05:07:45;3.40;;;3.10;;
43990;SDS011;29654;50.784;20.604;2023-08-30T05:12:48;3.83;;;3.42;;
43990;SDS011;29654;50.784;20.604;2023-08-30T05:17:56;3.30;;;3.00;;
43990;SDS011;29654;50.784;20.604;2023-08-30T05:23:01;4.47;;;3.75;;
43990;SDS011;29654;50.784;20.604;2023-08-30T05:28:07;3.78;;;3.30;;
43990;SDS011;29654;50.784;20.604;2023-08-30T05:33:13;4.53;;;3.80;;
43990;SDS011;29654;50.784;20.604;2023-08-30T05:38:25;3.70;;;3.38;;
43990;SDS011;29654;50.784;20.604;2023-08-30T05:43:39;3.83;;;3.47;;
43990;SDS011;29654;50.784;20.604;2023-08-30T05:48:43;4.07;;;3.70;;
43990;SDS011;29654;50.784;20.604;2023-08-30T05:53:46;4.20;;;3.80;;
43990;SDS011;29654;50.784;20.604;2023-08-30T05:58:50;4.22;;;3.22;;
43990;SDS011;29654;50.784;20.604;2023-08-30T06:03:55;5.53;;;4.75;;
43990;SDS011;29654;50.784;20.604;2023-08-30T06:08:58;6.43;;;5.15;;
43990;SDS011;29654;50.784;20.604;2023-08-30T06:14:01;6.68;;;4.97;;
43990;SDS011;29654;50.784;20.604;2023-08-30T06:19:08;6.25;;;5.50;;
43990;SDS011;29654;50.784;20.604;2023-08-30T06:24:15;8.38;;;6.40;;
43990;SDS011;29654;50.784;20.604;2023-08-30T06:29:25;8.75;;;6.78;;
43990;SDS011;29654;50.784;20.604;2023-08-30T06:34:37;11.60;;;8.45;;
43990;SDS011;29654;50.784;20.604;2023-08-30T06:39:43;9.00;;;6.88;;
43990;SDS011;29654;50.784;20.604;2023-08-30T06:44:52;8.40;;;6.95;;
43990;SDS011;29654;50.784;20.604;2023-08-30T06:50:04;10.25;;;7.90;;
43990;SDS011;29654;50.784;20.604;2023-08-30T06:55:20;11.40;;;8.18;;
43990;SDS011;29654;50.784;20.604;2023-08-30T07:00:28;10.95;;;8.07;;
43990;SDS011;29654;50.784;20.604;2023-08-30T07:05:37;8.80;;;7.60;;
43990;SDS011;29654;50.784;20.604;2023-08-30T07:10:45;7.95;;;6.45;;
43990;SDS011;29654;50.784;20.604;2023-08-30T07:15:54;7.63;;;5.88;;
43990;SDS011;29654;50.784;20.604;2023-08-30T07:21:03;7.90;;;5.80;;
43990;SDS011;29654;50.784;20.604;2023-08-30T07:26:15;7.40;;;5.30;;
43990;SDS011;29654;50.784;20.604;2023-08-30T07:31:22;6.13;;;5.53;;
43990;SDS011;29654;50.784;20.604;2023-08-30T07:36:33;5.82;;;5.22;;
43990;SDS011;29654;50.784;20.604;2023-08-30T07:41:41;5.20;;;4.70;;
43990;SDS011;29654;50.784;20.604;2023-08-30T07:46:49;5.57;;;4.78;;
43990;SDS011;29654;50.784;20.604;2023-08-30T07:52:02;4.82;;;4.43;;
43990;SDS011;29654;50.784;20.604;2023-08-30T07:57:14;5.78;;;4.47;;
43990;SDS011;29654;50.784;20.604;2023-08-30T08:02:21;4.15;;;3.75;;
43990;SDS011;29654;50.784;20.604;2023-08-30T08:07:27;3.92;;;3.63;;
43990;SDS011;29654;50.784;20.604;2023-08-30T08:12:30;5.88;;;4.10;;
43990;SDS011;29654;50.784;20.604;2023-08-30T08:17:34;4.00;;;3.70;;
43990;SDS011;29654;50.784;20.604;2023-08-30T08:22:38;4.30;;;4.00;;
43990;SDS011;29654;50.784;20.604;2023-08-30T08:27:41;4.35;;;3.97;;
43990;SDS011;29654;50.784;20.604;2023-08-30T08:32:45;4.82;;;4.43;;
43990;SDS011;29654;50.784;20.604;2023-08-30T08:37:49;5.10;;;4.65;;
43990;SDS011;29654;50.784;20.604;2023-08-30T08:42:52;5.18;;;4.43;;
43990;SDS011;29654;50.784;20.604;2023-08-30T08:47:56;5.03;;;4.47;;
43990;SDS011;29654;50.784;20.604;2023-08-30T08:53:01;4.93;;;4.47;;
43990;SDS011;29654;50.784;20.604;2023-08-30T08:58:05;2.63;;;2.42;;
43990;SDS011;29654;50.784;20.604;2023-08-30T09:03:07;2.42;;;1.02;;
43990;SDS011;29654;50.784;20.604;2023-08-30T09:08:12;0.75;;;0.60;;
43990;SDS011;29654;50.784;20.604;2023-08-30T09:13:17;0.43;;;0.43;;
43990;SDS011;29654;50.784;20.604;2023-08-30T09:18:21;1.10;;;0.50;;
43990;SDS011;29654;50.784;20.604;2023-08-30T09:23:29;2.88;;;0.55;;
43990;SDS011;29654;50.784;20.604;2023-08-30T09:28:31;1.17;;;0.60;;
43990;SDS011;29654;50.784;20.604;2023-08-30T09:33:45;1.10;;;0.60;;
43990;SDS011;29654;50.784;20.604;2023-08-30T09:38:50;0.63;;;0.63;;
43990;SDS011;29654;50.784;20.604;2023-08-30T09:43:53;0.90;;;0.75;;
43990;SDS011;29654;50.784;20.604;2023-08-30T09:48:56;0.60;;;0.50;;
43990;SDS011;29654;50.784;20.604;2023-08-30T09:54:01;0.88;;;0.60;;
43990;SDS011;29654;50.784;20.604;2023-08-30T09:59:06;0.47;;;0.47;;
43990;SDS011;29654;50.784;20.604;2023-08-30T10:04:11;0.40;;;0.40;;
43990;SDS011;29654;50.784;20.604;2023-08-30T10:09:15;0.38;;;0.38;;
43990;SDS011;29654;50.784;20.604;2023-08-30T10:14:18;1.45;;;0.40;;
43990;SDS011;29654;50.784;20.604;2023-08-30T10:19:23;1.02;;;0.77;;
43990;SDS011;29654;50.784;20.604;2023-08-30T10:24:29;2.35;;;0.60;;
43990;SDS011;29654;50.784;20.604;2023-08-30T10:29:35;0.85;;;0.85;;
43990;SDS011;29654;50.784;20.604;2023-08-30T10:34:39;1.27;;;1.17;;
43990;SDS011;29654;50.784;20.604;2023-08-30T10:39:47;3.80;;;2.92;;
43990;SDS011;29654;50.784;20.604;2023-08-30T10:44:50;2.08;;;1.98;;
43990;SDS011;29654;50.784;20.604;2023-08-30T10:49:58;2.25;;;1.70;;
43990;SDS011;29654;50.784;20.604;2023-08-30T10:55:06;2.67;;;2.28;;
43990;SDS011;29654;50.784;20.604;2023-08-30T11:00:11;1.50;;;0.90;;
43990;SDS011;29654;50.784;20.604;2023-08-30T11:05:22;1.83;;;1.73;;
43990;SDS011;29654;50.784;20.604;2023-08-30T11:10:28;8.88;;;7.55;;
43990;SDS011;29654;50.784;20.604;2023-08-30T11:15:30;4.60;;;3.10;;
43990;SDS011;29654;50.784;20.604;2023-08-30T11:20:33;2.60;;;1.70;;
43990;SDS011;29654;50.784;20.604;2023-08-30T11:25:37;1.67;;;1.58;;
43990;SDS011;29654;50.784;20.604;2023-08-30T11:30:40;1.80;;;1.70;;
43990;SDS011;29654;50.784;20.604;2023-08-30T11:35:42;2.55;;;2.00;;
43990;SDS011;29654;50.784;20.604;2023-08-30T11:40:46;3.05;;;2.65;;
43990;SDS011;29654;50.784;20.604;2023-08-30T11:45:55;3.70;;;3.50;;
43990;SDS011;29654;50.784;20.604;2023-08-30T11:50:58;3.97;;;3.58;;
43990;SDS011;29654;50.784;20.604;2023-08-30T11:56:02;3.63;;;3.33;;
43990;SDS011;29654;50.784;20.604;2023-08-30T12:01:06;2.97;;;2.78;;
43990;SDS011;29654;50.784;20.604;2023-08-30T12:06:11;2.80;;;2.60;;
43990;SDS011;29654;50.784;20.604;2023-08-30T12:11:19;3.65;;;3.35;;
43990;SDS011;29654;50.784;20.604;2023-08-30T12:16:22;4.75;;;4.35;;
43990;SDS011;29654;50.784;20.604;2023-08-30T12:21:25;4.00;;;3.70;;
43990;SDS011;29654;50.784;20.604;2023-08-30T12:26:32;3.13;;;2.92;;
43990;SDS011;29654;50.784;20.604;2023-08-30T12:31:35;3.17;;;2.92;;
43990;SDS011;29654;50.784;20.604;2023-08-30T12:36:39;3.08;;;2.88;;
43990;SDS011;29654;50.784;20.604;2023-08-30T12:41:43;3.17;;;2.60;;
43990;SDS011;29654;50.784;20.604;2023-08-30T12:46:46;1.90;;;1.80;;
43990;SDS011;29654;50.784;20.604;2023-08-30T12:51:49;2.20;;;2.10;;
43990;SDS011;29654;50.784;20.604;2023-08-30T12:56:53;2.33;;;2.03;;
43990;SDS011;29654;50.784;20.604;2023-08-30T13:01:55;2.42;;;2.22;;
43990;SDS011;29654;50.784;20.604;2023-08-30T13:06:58;4.78;;;4.15;;
43990;SDS011;29654;50.784;20.604;2023-08-30T13:12:02;2.20;;;2.00;;
43990;SDS011;29654;50.784;20.604;2023-08-30T13:17:05;3.92;;;2.20;;
43990;SDS011;29654;50.784;20.604;2023-08-30T13:22:08;2.45;;;2.25;;
43990;SDS011;29654;50.784;20.604;2023-08-30T13:27:12;2.15;;;2.03;;
43990;SDS011;29654;50.784;20.604;2023-08-30T13:32:15;2.83;;;2.60;;
43990;SDS011;29654;50.784;20.604;2023-08-30T13:37:17;3.15;;;2.80;;
43990;SDS011;29654;50.784;20.604;2023-08-30T13:42:21;5.60;;;4.97;;
43990;SDS011;29654;50.784;20.604;2023-08-30T13:47:24;6.72;;;5.55;;
43990;SDS011;29654;50.784;20.604;2023-08-30T13:52:26;4.63;;;4.00;;
43990;SDS011;29654;50.784;20.604;2023-08-30T13:57:32;3.55;;;3.25;;
43990;SDS011;29654;50.784;20.604;2023-08-30T14:02:34;3.75;;;3.40;;
43990;SDS011;29654;50.784;20.604;2023-08-30T14:07:37;4.93;;;3.38;;
43990;SDS011;29654;50.784;20.604;2023-08-30T14:12:41;4.07;;;3.67;;
43990;SDS011;29654;50.784;20.604;2023-08-30T14:17:43;3.75;;;3.40;;
43990;SDS011;29654;50.784;20.604;2023-08-30T14:22:46;4.05;;;3.22;;
43990;SDS011;29654;50.784;20.604;2023-08-30T14:27:50;3.60;;;3.30;;
43990;SDS011;29654;50.784;20.604;2023-08-30T14:32:53;3.47;;;3.17;;
43990;SDS011;29654;50.784;20.604;2023-08-30T14:37:56;3.03;;;2.72;;
43990;SDS011;29654;50.784;20.604;2023-08-30T14:43:00;4.32;;;3.17;;
43990;SDS011;29654;50.784;20.604;2023-08-30T14:48:02;3.13;;;2.90;;
43990;SDS011;29654;50.784;20.604;2023-08-30T14:53:06;3.22;;;2.92;;
43990;SDS011;29654;50.784;20.604;2023-08-30T14:58:10;4.18;;;3.40;;
43990;SDS011;29654;50.784;20.604;2023-08-30T15:03:14;3.65;;;3.35;;
43990;SDS011;29654;50.784;20.604;2023-08-30T15:08:23;4.72;;;3.13;;
43990;SDS011;29654;50.784;20.604;2023-08-30T15:13:28;3.75;;;3.42;;
43990;SDS011;29654;50.784;20.604;2023-08-30T15:18:30;3.33;;;3.03;;
43990;SDS011;29654;50.784;20.604;2023-08-30T15:23:33;3.63;;;2.30;;
43990;SDS011;29654;50.784;20.604;2023-08-30T15:28:39;2.65;;;2.45;;
43990;SDS011;29654;50.784;20.604;2023-08-30T15:33:43;4.20;;;2.67;;
43990;SDS011;29654;50.784;20.604;2023-08-30T15:38:46;3.28;;;2.97;;
43990;SDS011;29654;50.784;20.604;2023-08-30T15:43:51;3.65;;;3.35;;
43990;SDS011;29654;50.784;20.604;2023-08-30T15:48:54;3.38;;;3.13;;
43990;SDS011;29654;50.784;20.604;2023-08-30T15:53:56;4.70;;;3.70;;
43990;SDS011;29654;50.784;20.604;2023-08-30T15:59:00;5.55;;;3.70;;
43990;SDS011;29654;50.784;20.604;2023-08-30T16:04:03;4.15;;;3.70;;
43990;SDS011;29654;50.784;20.604;2023-08-30T16:09:06;5.82;;;3.75;;
43990;SDS011;29654;50.784;20.604;2023-08-30T16:14:11;4.32;;;3.58;;
43990;SDS011;29654;50.784;20.604;2023-08-30T16:19:13;6.30;;;3.47;;
43990;SDS011;29654;50.784;20.604;2023-08-30T16:24:17;4.63;;;3.15;;
43990;SDS011;29654;50.784;20.604;2023-08-30T16:29:24;6.78;;;3.47;;
43990;SDS011;29654;50.784;20.604;2023-08-30T16:34:27;6.40;;;3.25;;
43990;SDS011;29654;50.784;20.604;2023-08-30T16:39:30;7.30;;;4.00;;
43990;SDS011;29654;50.784;20.604;2023-08-30T16:44:34;4.15;;;3.30;;
43990;SDS011;29654;50.784;20.604;2023-08-30T16:49:37;8.45;;;4.07;;
43990;SDS011;29654;50.784;20.604;2023-08-30T16:54:39;6.40;;;3.90;;
43990;SDS011;29654;50.784;20.604;2023-08-30T16:59:43;6.10;;;3.80;;
43990;SDS011;29654;50.784;20.604;2023-08-30T17:04:46;5.43;;;3.30;;
43990;SDS011;29654;50.784;20.604;2023-08-30T17:09:49;4.88;;;3.20;;
43990;SDS011;29654;50.784;20.604;2023-08-30T17:14:53;3.03;;;2.78;;
43990;SDS011;29654;50.784;20.604;2023-08-30T17:19:55;3.75;;;3.25;;
43990;SDS011;29654;50.784;20.604;2023-08-30T17:24:58;3.30;;;3.00;;
43990;SDS011;29654;50.784;20.604;2023-08-30T17:30:02;5.07;;;3.47;;
43990;SDS011;29654;50.784;20.604;2023-08-30T17:35:06;5.32;;;3.92;;
43990;SDS011;29654;50.784;20.604;2023-08-30T17:40:10;5.35;;;3.75;;
43990;SDS011;29654;50.784;20.604;2023-08-30T17:45:14;6.18;;;3.85;;
43990;SDS011;29654;50.784;20.604;2023-08-30T17:50:17;5.10;;;3.53;;
43990;SDS011;29654;50.784;20.604;2023-08-30T17:55:20;4.32;;;3.80;;
43990;SDS011;29654;50.784;20.604;2023-08-30T18:00:24;4.85;;;3.85;;
43990;SDS011;29654;50.784;20.604;2023-08-30T18:05:27;4.03;;;3.40;;
43990;SDS011;29654;50.784;20.604;2023-08-30T18:10:29;4.10;;;3.70;;
43990;SDS011;29654;50.784;20.604;2023-08-30T18:15:36;4.10;;;3.22;;
43990;SDS011;29654;50.784;20.604;2023-08-30T18:20:40;4.72;;;4.32;;
43990;SDS011;29654;50.784;20.604;2023-08-30T18:25:44;5.85;;;5.35;;
43990;SDS011;29654;50.784;20.604;2023-08-30T18:30:49;5.10;;;4.57;;
43990;SDS011;29654;50.784;20.604;2023-08-30T18:35:53;4.78;;;4.28;;
43990;SDS011;29654;50.784;20.604;2023-08-30T18:40:56;4.53;;;4.10;;
43990;SDS011;29654;50.784;20.604;2023-08-30T18:46:00;5.25;;;4.07;;
43990;SDS011;29654;50.784;20.604;2023-08-30T18:51:03;4.30;;;3.88;;
43990;SDS011;29654;50.784;20.604;2023-08-30T18:56:06;5.40;;;4.32;;
43990;SDS011;29654;50.784;20.604;2023-08-30T19:01:12;4.97;;;4.53;;
43990;SDS011;29654;50.784;20.604;2023-08-30T19:06:15;4.43;;;4.03;;
43990;SDS011;29654;50.784;20.604;2023-08-30T19:11:20;4.22;;;3.92;;
43990;SDS011;29654;50.784;20.604;2023-08-30T19:16:24;3.50;;;3.20;;
43990;SDS011;29654;50.784;20.604;2023-08-30T19:21:29;3.35;;;3.05;;
43990;SDS011;29654;50.784;20.604;2023-08-30T19:26:32;3.75;;;3.45;;
43990;SDS011;29654;50.784;20.604;2023-08-30T19:31:36;2.95;;;2.75;;
43990;SDS011;29654;50.784;20.604;2023-08-30T19:36:39;4.20;;;3.80;;
43990;SDS011;29654;50.784;20.604;2023-08-30T19:41:42;3.60;;;3.30;;
43990;SDS011;29654;50.784;20.604;2023-08-30T19:46:46;4.10;;;3.75;;
43990;SDS011;29654;50.784;20.604;2023-08-30T19:51:49;4.57;;;4.03;;
43990;SDS011;29654;50.784;20.604;2023-08-30T19:56:52;4.10;;;3.80;;
43990;SDS011;29654;50.784;20.604;2023-08-30T20:01:56;4.50;;;4.10;;
43990;SDS011;29654;50.784;20.604;2023-08-30T20:06:59;5.78;;;4.78;;
43990;SDS011;29654;50.784;20.604;2023-08-30T20:12:02;6.95;;;5.22;;
43990;SDS011;29654;50.784;20.604;2023-08-30T20:17:07;4.60;;;4.20;;
43990;SDS011;29654;50.784;20.604;2023-08-30T20:22:10;4.57;;;3.53;;
43990;SDS011;29654;50.784;20.604;2023-08-30T20:27:12;3.55;;;3.25;;
43990;SDS011;29654;50.784;20.604;2023-08-30T20:32:16;3.30;;;3.00;;
43990;SDS011;29654;50.784;20.604;2023-08-30T20:37:21;4.15;;;3.75;;
43990;SDS011;29654;50.784;20.604;2023-08-30T20:42:24;3.92;;;3.53;;
43990;SDS011;29654;50.784;20.604;2023-08-30T20:47:30;3.63;;;3.15;;
43990;SDS011;29654;50.784;20.604;2023-08-30T20:52:33;2.95;;;2.75;;
43990;SDS011;29654;50.784;20.604;2023-08-30T20:57:36;2.83;;;2.63;;
43990;SDS011;29654;50.784;20.604;2023-08-30T21:02:40;3.03;;;2.63;;
43990;SDS011;29654;50.784;20.604;2023-08-30T21:07:43;3.03;;;2.72;;
43990;SDS011;29654;50.784;20.604;2023-08-30T21:12:46;3.97;;;3.00;;
43990;SDS011;29654;50.784;20.604;2023-08-30T21:17:50;3.15;;;2.72;;
43990;SDS011;29654;50.784;20.604;2023-08-30T21:22:52;2.72;;;2.17;;
43990;SDS011;29654;50.784;20.604;2023-08-30T21:27:55;2.72;;;2.42;;
43990;SDS011;29654;50.784;20.604;2023-08-30T21:32:59;3.72;;;3.38;;
43990;SDS011;29654;50.784;20.604;2023-08-30T21:38:02;2.78;;;2.58;;
43990;SDS011;29654;50.784;20.604;2023-08-30T21:43:05;2.63;;;2.40;;
43990;SDS011;29654;50.784;20.604;2023-08-30T21:48:10;2.58;;;2.42;;
43990;SDS011;29654;50.784;20.604;2023-08-30T21:53:13;3.33;;;2.88;;
43990;SDS011;29654;50.784;20.604;2023-08-30T21:58:15;3.20;;;2.90;;
43990;SDS011;29654;50.784;20.604;2023-08-30T22:03:19;2.50;;;2.30;;
43990;SDS011;29654;50.784;20.604;2023-08-30T22:08:22;3.25;;;2.95;;
43990;SDS011;29654;50.784;20.604;2023-08-30T22:13:25;3.97;;;3.08;;
43990;SDS011;29654;50.784;20.604;2023-08-30T22:18:29;3.30;;;3.00;;
43990;SDS011;29654;50.784;20.604;2023-08-30T22:23:32;3.58;;;3.25;;
43990;SDS011;29654;50.784;20.604;2023-08-30T22:28:35;3.20;;;3.00;;
43990;SDS011;29654;50.784;20.604;2023-08-30T22:33:39;3.78;;;3.47;;
43990;SDS011;29654;50.784;20.604;2023-08-30T22:38:41;3.83;;;3.53;;
43990;SDS011;29654;50.784;20.604;2023-08-30T22:43:44;3.30;;;3.00;;
43990;SDS011;29654;50.784;20.604;2023-08-30T22:48:48;3.05;;;2.80;;
43990;SDS011;29654;50.784;20.604;2023-08-30T22:53:52;2.92;;;2.67;;
43990;SDS011;29654;50.784;20.604;2023-08-30T22:58:56;3.15;;;2.88;;
43990;SDS011;29654;50.784;20.604;2023-08-30T23:04:01;3.40;;;3.10;;
43990;SDS011;29654;50.784;20.604;2023-08-30T23:09:04;3.78;;;3.47;;
43990;SDS011;29654;50.784;20.604;2023-08-30T23:14:07;3.25;;;3.05;;
43990;SDS011;29654;50.784;20.604;2023-08-30T23:19:12;4.82;;;3.60;;
43990;SDS011;29654;50.784;20.604;2023-08-30T23:24:15;4.18;;;3.40;;
43990;SDS011;29654;50.784;20.604;2023-08-30T23:29:18;3.45;;;3.15;;
43990;SDS011;29654;50.784;20.604;2023-08-30T23:34:27;3.20;;;3.00;;
43990;SDS011;29654;50.784;20.604;2023-08-30T23:39:30;3.58;;;3.08;;
43990;SDS011;29654;50.784;20.604;2023-08-30T23:44:34;3.45;;;3.17;;
43990;SDS011;29654;50.784;20.604;2023-08-30T23:49:38;3.65;;;3.35;;
43990;SDS011;29654;50.784;20.604;2023-08-30T23:54:40;3.95;;;3.35;;
43990;SDS011;29654;50.784;20.604;2023-08-30T23:59:43;5.78;;;3.97;;
